Time,TemperatureF,DewpointF,PressureIn,WindDirection,WindDirectionDegrees,WindSpeedMPH,WindSpeedGustMPH,Humidity,HourlyPrecipIn,Conditions,Clouds,dailyrainin,SoftwareType,DateUTC
2013-06-29 00:01:00,75.6,67.5,29.58,SW,225,2.7,6.3,76,0.00,,,0.00,WUHU216HW,2013-06-29 04:01:00,
2013-06-29 00:02:00,75.4,67.3,29.58,WSW,248,1.1,3.8,76,0.00,,,0.00,WUHU216HW,2013-06-29 04:02:00,
2013-06-29 00:07:00,75.4,67.3,29.58,SSW,203,1.8,4.5,76,0.00,,,0.00,WUHU216HW,2013-06-29 04:07:00,
2013-06-29 00:12:00,75.2,67.6,29.58,WNW,293,1.8,4.5,77,0.00,,,0.00,WUHU216HW,2013-06-29 04:12:00,
2013-06-29 00:17:00,75.2,68.0,29.58,SW,225,4.0,6.7,78,0.00,,,0.00,WUHU216HW,2013-06-29 04:17:00,
2013-06-29 00:22:00,75.2,68.0,29.58,SE,135,4.0,6.7,78,0.00,,,0.00,WUHU216HW,2013-06-29 04:22:00,
2013-06-29 00:27:00,75.1,67.8,29.58,SW,225,1.6,6.3,78,0.00,,,0.00,WUHU216HW,2013-06-29 04:27:00,
2013-06-29 00:32:00,74.9,67.6,29.57,West,270,3.4,6.3,78,0.00,,,0.00,WUHU216HW,2013-06-29 04:32:00,
2013-06-29 00:37:00,74.7,67.4,29.57,WNW,293,2.2,6.0,78,0.00,,,0.00,WUHU216HW,2013-06-29 04:37:00,
2013-06-29 00:42:00,74.7,67.9,29.57,WSW,248,2.9,4.7,79,0.00,,,0.00,WUHU216HW,2013-06-29 04:42:00,
2013-06-29 00:47:00,74.5,67.7,29.56,NW,315,1.6,4.7,79,0.00,,,0.00,WUHU216HW,2013-06-29 04:47:00,
2013-06-29 00:52:00,74.3,67.9,29.56,West,270,4.7,4.7,80,0.00,,,0.00,WUHU216HW,2013-06-29 04:52:00,
2013-06-29 00:57:00,74.2,67.7,29.56,WSW,248,2.7,4.7,80,0.00,,,0.00,WUHU216HW,2013-06-29 04:57:00,
2013-06-29 01:02:00,74.0,67.5,29.56,WSW,248,1.8,3.4,80,0.00,,,0.00,WUHU216HW,2013-06-29 05:02:00,
2013-06-29 01:07:00,73.8,67.3,29.56,WSW,248,1.1,2.5,80,0.00,,,0.00,WUHU216HW,2013-06-29 05:07:00,
2013-06-29 01:12:00,73.6,67.5,29.56,SW,225,1.6,3.8,81,0.00,,,0.00,WUHU216HW,2013-06-29 05:12:00,
2013-06-29 01:17:00,73.4,67.3,29.56,WSW,248,3.1,3.8,81,0.00,,,0.00,WUHU216HW,2013-06-29 05:17:00,
2013-06-29 01:22:00,73.4,67.3,29.56,SW,225,2.2,4.0,81,0.00,,,0.00,WUHU216HW,2013-06-29 05:22:00,
2013-06-29 01:27:00,73.1,67.0,29.56,SW,225,1.3,4.0,81,0.00,,,0.00,WUHU216HW,2013-06-29 05:27:00,
2013-06-29 01:32:00,73.1,67.3,29.56,WSW,248,3.1,4.5,82,0.00,,,0.00,WUHU216HW,2013-06-29 05:32:00,
2013-06-29 01:37:00,72.9,67.4,29.55,West,270,1.8,4.5,83,0.00,,,0.00,WUHU216HW,2013-06-29 05:37:00,
2013-06-29 01:42:00,72.9,67.2,29.55,SW,225,1.1,3.8,82,0.00,,,0.00,WUHU216HW,2013-06-29 05:42:00,
2013-06-29 01:47:00,72.7,67.2,29.55,SSW,203,1.8,3.6,83,0.00,,,0.00,WUHU216HW,2013-06-29 05:47:00,
2013-06-29 01:52:00,72.7,67.0,29.55,SSW,203,1.1,3.6,82,0.00,,,0.00,WUHU216HW,2013-06-29 05:52:00,
2013-06-29 01:57:00,72.4,66.6,29.54,SSW,203,1.1,3.1,82,0.00,,,0.00,WUHU216HW,2013-06-29 05:57:00,
2013-06-29 02:02:00,72.4,66.6,29.55,SW,225,0.4,2.5,82,0.00,,,0.00,WUHU216HW,2013-06-29 06:02:00,
2013-06-29 02:07:00,72.0,66.3,29.55,SSW,203,1.8,1.8,82,0.00,,,0.00,WUHU216HW,2013-06-29 06:07:00,
2013-06-29 02:12:00,72.0,66.3,29.55,SW,225,1.3,2.5,82,0.00,,,0.00,WUHU216HW,2013-06-29 06:12:00,
2013-06-29 02:17:00,71.8,66.1,29.55,SW,225,2.0,2.5,82,0.00,,,0.00,WUHU216HW,2013-06-29 06:17:00,
2013-06-29 02:22:00,71.8,66.3,29.55,SW,225,1.1,2.2,83,0.00,,,0.00,WUHU216HW,2013-06-29 06:22:00,
2013-06-29 02:27:00,71.8,66.1,29.55,SSW,203,0.4,2.2,82,0.00,,,0.00,WUHU216HW,2013-06-29 06:27:00,
2013-06-29 02:32:00,71.8,66.3,29.55,SSW,203,1.1,1.3,83,0.00,,,0.00,WUHU216HW,2013-06-29 06:32:00,
2013-06-29 02:37:00,71.8,66.3,29.55,SSW,203,0.4,1.3,83,0.00,,,0.00,WUHU216HW,2013-06-29 06:37:00,
2013-06-29 02:42:00,71.8,66.3,29.55,SW,225,0.0,1.3,83,0.00,,,0.00,WUHU216HW,2013-06-29 06:42:00,
2013-06-29 02:47:00,71.6,66.2,29.56,SSW,203,0.0,1.3,83,0.00,,,0.00,WUHU216HW,2013-06-29 06:47:00,
2013-06-29 02:52:00,71.6,66.2,29.56,SSW,203,0.0,0.4,83,0.00,,,0.00,WUHU216HW,2013-06-29 06:52:00,
2013-06-29 02:57:00,71.6,66.2,29.56,SSW,203,0.2,0.9,83,0.00,,,0.00,WUHU216HW,2013-06-29 06:57:00,
2013-06-29 03:02:00,71.5,66.3,29.56,SSW,203,0.0,0.9,84,0.00,,,0.00,WUHU216HW,2013-06-29 07:02:00,
2013-06-29 03:07:00,71.5,66.3,29.56,SSW,203,0.0,0.4,84,0.00,,,0.00,WUHU216HW,2013-06-29 07:07:00,
2013-06-29 03:12:00,71.3,66.2,29.56,SSW,203,0.0,0.4,84,0.00,,,0.00,WUHU216HW,2013-06-29 07:12:00,
2013-06-29 03:17:00,71.3,66.2,29.56,SSW,203,0.7,1.1,84,0.00,,,0.00,WUHU216HW,2013-06-29 07:17:00,
2013-06-29 03:22:00,71.3,66.5,29.56,SSW,203,0.7,1.1,85,0.00,,,0.00,WUHU216HW,2013-06-29 07:22:00,
2013-06-29 03:27:00,71.1,66.0,29.56,South,180,0.4,1.1,84,0.00,,,0.00,WUHU216HW,2013-06-29 07:27:00,
2013-06-29 03:32:00,71.1,66.0,29.55,South,180,0.2,1.1,84,0.00,,,0.00,WUHU216HW,2013-06-29 07:32:00,
2013-06-29 03:37:00,71.1,66.0,29.55,South,180,0.0,0.7,84,0.00,,,0.00,WUHU216HW,2013-06-29 07:37:00,
2013-06-29 03:42:00,70.9,66.2,29.55,South,180,0.2,0.7,85,0.00,,,0.00,WUHU216HW,2013-06-29 07:42:00,
2013-06-29 03:47:00,70.9,66.2,29.55,South,180,0.4,1.1,85,0.00,,,0.00,WUHU216HW,2013-06-29 07:47:00,
2013-06-29 03:52:00,70.9,66.2,29.55,South,180,0.0,1.1,85,0.00,,,0.00,WUHU216HW,2013-06-29 07:52:00,
2013-06-29 03:57:00,70.9,66.2,29.55,SSW,203,0.9,0.9,85,0.00,,,0.00,WUHU216HW,2013-06-29 07:57:00,
2013-06-29 04:02:00,70.9,66.2,29.55,SSW,203,1.1,1.6,85,0.00,,,0.00,WUHU216HW,2013-06-29 08:02:00,
2013-06-29 04:07:00,70.9,66.5,29.55,SSW,203,0.4,1.6,86,0.00,,,0.00,WUHU216HW,2013-06-29 08:07:00,
2013-06-29 04:12:00,70.9,66.5,29.56,SSW,203,0.4,1.6,86,0.00,,,0.00,WUHU216HW,2013-06-29 08:12:00,
2013-06-29 04:17:00,70.7,66.3,29.55,SSW,203,0.0,1.1,86,0.00,,,0.00,WUHU216HW,2013-06-29 08:17:00,
2013-06-29 04:22:00,70.6,66.2,29.56,SSW,203,0.0,0.4,86,0.00,,,0.00,WUHU216HW,2013-06-29 08:22:00,
2013-06-29 04:27:00,70.6,66.2,29.56,SSW,203,0.0,0.4,86,0.00,,,0.00,WUHU216HW,2013-06-29 08:27:00,
2013-06-29 04:32:00,70.2,65.8,29.56,SSW,203,0.0,0.4,86,0.00,,,0.00,WUHU216HW,2013-06-29 08:32:00,
2013-06-29 04:37:00,70.0,65.6,29.56,SSW,203,0.0,0.4,86,0.00,,,0.00,WUHU216HW,2013-06-29 08:37:00,
2013-06-29 04:42:00,69.8,65.8,29.56,SSW,203,0.0,0.0,87,0.00,,,0.00,WUHU216HW,2013-06-29 08:42:00,
2013-06-29 04:47:00,69.7,65.6,29.56,SSW,203,0.0,0.2,87,0.00,,,0.00,WUHU216HW,2013-06-29 08:47:00,
2013-06-29 04:52:00,69.5,65.4,29.56,SSW,203,0.0,0.7,87,0.00,,,0.00,WUHU216HW,2013-06-29 08:52:00,
2013-06-29 04:57:00,69.5,65.4,29.56,SSW,203,0.0,0.7,87,0.00,,,0.00,WUHU216HW,2013-06-29 08:57:00,
2013-06-29 05:02:00,69.5,65.4,29.55,SSW,203,0.0,0.0,87,0.00,,,0.00,WUHU216HW,2013-06-29 09:02:00,
2013-06-29 05:07:00,69.3,65.3,29.55,SSW,203,0.0,0.0,87,0.00,,,0.00,WUHU216HW,2013-06-29 09:07:00,
2013-06-29 05:12:00,69.1,65.4,29.55,SSW,203,0.0,0.0,88,0.00,,,0.00,WUHU216HW,2013-06-29 09:12:00,
2013-06-29 05:17:00,69.1,65.4,29.56,SSW,203,0.0,0.0,88,0.00,,,0.00,WUHU216HW,2013-06-29 09:17:00,
2013-06-29 05:22:00,68.9,65.3,29.56,SSW,203,0.4,1.1,88,0.00,,,0.00,WUHU216HW,2013-06-29 09:22:00,
2013-06-29 05:27:00,68.9,65.3,29.55,SSW,203,0.0,1.1,88,0.00,,,0.00,WUHU216HW,2013-06-29 09:27:00,
2013-06-29 05:32:00,68.8,65.1,29.56,SSW,203,0.0,0.4,88,0.00,,,0.00,WUHU216HW,2013-06-29 09:32:00,
2013-06-29 05:37:00,68.6,64.9,29.56,SSW,203,0.0,0.0,88,0.00,,,0.00,WUHU216HW,2013-06-29 09:37:00,
2013-06-29 05:42:00,68.4,64.7,29.56,SSW,203,0.0,0.0,88,0.00,,,0.00,WUHU216HW,2013-06-29 09:42:00,
2013-06-29 05:47:00,68.2,64.5,29.56,SSW,203,0.0,0.0,88,0.00,,,0.00,WUHU216HW,2013-06-29 09:47:00,
2013-06-29 05:52:00,68.0,64.4,29.56,SSW,203,0.0,0.0,88,0.00,,,0.00,WUHU216HW,2013-06-29 09:52:00,
2013-06-29 05:57:00,68.0,64.6,29.56,SSW,203,0.0,0.0,89,0.00,,,0.00,WUHU216HW,2013-06-29 09:57:00,
2013-06-29 06:02:00,68.0,64.6,29.56,SSW,203,0.0,0.0,89,0.00,,,0.00,WUHU216HW,2013-06-29 10:02:00,
2013-06-29 06:07:00,67.9,64.4,29.57,SSW,203,0.0,0.0,89,0.00,,,0.00,WUHU216HW,2013-06-29 10:07:00,
2013-06-29 06:12:00,68.0,64.6,29.57,SSW,203,0.0,0.0,89,0.00,,,0.00,WUHU216HW,2013-06-29 10:12:00,
2013-06-29 06:17:00,67.9,64.8,29.57,SSW,203,0.4,0.9,90,0.00,,,0.00,WUHU216HW,2013-06-29 10:17:00,
2013-06-29 06:22:00,68.0,65.0,29.57,SSW,203,0.0,0.9,90,0.00,,,0.00,WUHU216HW,2013-06-29 10:22:00,
2013-06-29 06:27:00,68.0,65.0,29.57,SSW,203,0.0,0.4,90,0.00,,,0.00,WUHU216HW,2013-06-29 10:27:00,
2013-06-29 06:32:00,67.9,64.8,29.57,SSW,203,0.0,0.4,90,0.00,,,0.00,WUHU216HW,2013-06-29 10:32:00,
2013-06-29 06:37:00,67.9,64.8,29.57,SSW,203,0.0,0.4,90,0.00,,,0.00,WUHU216HW,2013-06-29 10:37:00,
2013-06-29 06:42:00,67.9,64.8,29.57,SSW,203,0.0,0.0,90,0.00,,,0.00,WUHU216HW,2013-06-29 10:42:00,
2013-06-29 06:47:00,68.0,65.0,29.57,SSW,203,0.0,0.0,90,0.00,,,0.00,WUHU216HW,2013-06-29 10:47:00,
2013-06-29 06:52:00,68.0,65.0,29.58,SSW,203,0.0,0.0,90,0.00,,,0.00,WUHU216HW,2013-06-29 10:52:00,
2013-06-29 06:57:00,68.2,65.2,29.58,SSW,203,0.0,0.0,90,0.00,,,0.00,WUHU216HW,2013-06-29 10:57:00,
2013-06-29 07:02:00,68.6,65.5,29.58,SSW,203,0.9,1.3,90,0.00,,,0.00,WUHU216HW,2013-06-29 11:02:00,
2013-06-29 07:07:00,68.8,66.0,29.58,SSW,203,0.0,1.3,91,0.00,,,0.00,WUHU216HW,2013-06-29 11:07:00,
2013-06-29 07:12:00,68.9,66.2,29.58,SSW,203,0.0,0.9,91,0.00,,,0.00,WUHU216HW,2013-06-29 11:12:00,
2013-06-29 07:17:00,69.3,66.5,29.58,SSW,203,0.2,0.9,91,0.00,,,0.00,WUHU216HW,2013-06-29 11:17:00,
2013-06-29 07:22:00,69.5,66.7,29.58,SSW,203,1.1,1.1,91,0.00,,,0.00,WUHU216HW,2013-06-29 11:22:00,
2013-06-29 07:27:00,69.8,66.8,29.58,SSW,203,0.0,1.1,90,0.00,,,0.00,WUHU216HW,2013-06-29 11:27:00,
2013-06-29 07:32:00,70.2,67.1,29.59,SSW,203,1.8,2.5,90,0.00,,,0.00,WUHU216HW,2013-06-29 11:32:00,
2013-06-29 07:37:00,70.4,67.3,29.59,SSW,203,1.1,2.5,90,0.00,,,0.00,WUHU216HW,2013-06-29 11:37:00,
2013-06-29 07:42:00,70.6,67.5,29.58,SSW,203,1.8,2.5,90,0.00,,,0.00,WUHU216HW,2013-06-29 11:42:00,
2013-06-29 07:47:00,70.9,67.9,29.59,WSW,248,1.1,2.2,90,0.00,,,0.00,WUHU216HW,2013-06-29 11:47:00,
2013-06-29 07:52:00,71.1,68.0,29.59,SSW,203,1.8,2.2,90,0.00,,,0.00,WUHU216HW,2013-06-29 11:52:00,
2013-06-29 07:57:00,71.5,68.4,29.59,SSW,203,1.1,2.5,90,0.00,,,0.00,WUHU216HW,2013-06-29 11:57:00,
2013-06-29 08:02:00,71.6,68.2,29.59,SW,225,0.4,2.5,89,0.00,,,0.00,WUHU216HW,2013-06-29 12:02:00,
2013-06-29 08:07:00,71.8,68.4,29.59,WSW,248,0.9,1.8,89,0.00,,,0.00,WUHU216HW,2013-06-29 12:07:00,
2013-06-29 08:12:00,71.8,68.4,29.59,WSW,248,1.8,2.2,89,0.00,,,0.00,WUHU216HW,2013-06-29 12:12:00,
2013-06-29 08:17:00,71.8,68.4,29.59,WSW,248,1.1,2.2,89,0.00,,,0.00,WUHU216HW,2013-06-29 12:17:00,
2013-06-29 08:22:00,72.0,68.6,29.59,SSW,203,0.9,2.0,89,0.00,,,0.00,WUHU216HW,2013-06-29 12:22:00,
2013-06-29 08:27:00,72.2,68.4,29.59,SSW,203,1.1,2.0,88,0.00,,,0.00,WUHU216HW,2013-06-29 12:27:00,
2013-06-29 08:32:00,72.4,68.6,29.59,WSW,248,0.4,1.8,88,0.00,,,0.00,WUHU216HW,2013-06-29 12:32:00,
2013-06-29 08:37:00,72.7,68.9,29.59,West,270,0.7,1.8,88,0.00,,,0.00,WUHU216HW,2013-06-29 12:37:00,
2013-06-29 08:42:00,73.3,69.8,29.59,WSW,248,0.7,1.8,89,0.00,,,0.00,WUHU216HW,2013-06-29 12:42:00,
2013-06-29 08:47:00,73.8,70.0,29.59,WSW,248,0.9,1.6,88,0.00,,,0.00,WUHU216HW,2013-06-29 12:47:00,
2013-06-29 08:52:00,74.3,70.6,29.59,SSW,203,0.4,1.8,88,0.00,,,0.00,WUHU216HW,2013-06-29 12:52:00,
2013-06-29 08:57:00,74.9,70.8,29.59,SSW,203,0.9,2.0,87,0.00,,,0.00,WUHU216HW,2013-06-29 12:57:00,
2013-06-29 09:02:00,75.4,71.0,29.59,SW,225,1.1,2.5,86,0.00,,,0.00,WUHU216HW,2013-06-29 13:02:00,
2013-06-29 09:07:00,76.0,71.5,29.59,SSW,203,0.7,2.5,86,0.00,,,0.00,WUHU216HW,2013-06-29 13:07:00,
2013-06-29 09:12:00,76.9,72.0,29.59,South,180,0.2,2.9,85,0.00,,,0.00,WUHU216HW,2013-06-29 13:12:00,
2013-06-29 09:17:00,77.4,72.2,29.59,SW,225,0.7,2.9,84,0.00,,,0.00,WUHU216HW,2013-06-29 13:17:00,
2013-06-29 09:22:00,78.1,72.2,29.59,SSW,203,1.1,2.2,82,0.00,,,0.00,WUHU216HW,2013-06-29 13:22:00,
2013-06-29 09:27:00,78.7,72.4,29.59,SSW,203,0.0,2.9,81,0.00,,,0.00,WUHU216HW,2013-06-29 13:27:00,
2013-06-29 09:32:00,79.4,73.1,29.59,NE,45,2.0,2.9,81,0.00,,,0.00,WUHU216HW,2013-06-29 13:32:00,
2013-06-29 09:37:00,80.1,73.4,29.59,SSW,203,1.1,2.2,80,0.00,,,0.00,WUHU216HW,2013-06-29 13:37:00,
2013-06-29 09:43:00,81.0,73.5,29.59,SSW,203,1.1,2.2,78,0.00,,,0.00,WUHU216HW,2013-06-29 13:43:00,
2013-06-29 09:48:00,81.7,74.3,29.59,South,180,1.1,2.2,78,0.00,,,0.00,WUHU216HW,2013-06-29 13:48:00,
2013-06-29 09:53:00,82.4,73.7,29.59,SSW,203,1.6,2.5,75,0.00,,,0.00,WUHU216HW,2013-06-29 13:53:00,
2013-06-29 09:58:00,82.8,72.8,29.59,SW,225,1.6,2.5,72,0.00,,,0.00,WUHU216HW,2013-06-29 13:58:00,
2013-06-29 10:03:00,83.7,73.7,29.59,SSW,203,2.2,4.9,72,0.00,,,0.00,WUHU216HW,2013-06-29 14:03:00,
2013-06-29 10:08:00,84.1,74.1,29.59,SW,225,0.7,4.9,72,0.00,,,0.00,WUHU216HW,2013-06-29 14:08:00,
2013-06-29 10:13:00,84.6,74.6,29.58,SSW,203,1.1,3.6,72,0.00,,,0.00,WUHU216HW,2013-06-29 14:13:00,
2013-06-29 10:18:00,83.9,73.4,29.58,NNE,23,0.7,4.0,71,0.00,,,0.00,WUHU216HW,2013-06-29 14:18:00,
2013-06-29 10:23:00,83.7,73.7,29.58,SSW,203,2.9,4.0,72,0.00,,,0.00,WUHU216HW,2013-06-29 14:23:00,
2013-06-29 10:28:00,84.2,73.8,29.59,SW,225,2.0,3.8,71,0.00,,,0.00,WUHU216HW,2013-06-29 14:28:00,
2013-06-29 10:33:00,84.4,73.6,29.59,South,180,2.7,3.8,70,0.00,,,0.00,WUHU216HW,2013-06-29 14:33:00,
2013-06-29 10:38:00,84.8,74.0,29.59,SW,225,2.7,3.8,70,0.00,,,0.00,WUHU216HW,2013-06-29 14:38:00,
2013-06-29 10:43:00,84.8,73.5,29.59,SSE,158,1.8,4.0,69,0.00,,,0.00,WUHU216HW,2013-06-29 14:43:00,
2013-06-29 10:48:00,85.3,73.2,29.59,SW,225,2.5,4.5,67,0.00,,,0.00,WUHU216HW,2013-06-29 14:48:00,
2013-06-29 10:53:00,86.0,73.8,29.59,SW,225,1.8,4.7,67,0.00,,,0.00,WUHU216HW,2013-06-29 14:53:00,
2013-06-29 10:58:00,86.6,73.0,29.59,SW,225,4.0,6.3,64,0.00,,,0.00,WUHU216HW,2013-06-29 14:58:00,
2013-06-29 11:03:00,86.8,73.1,29.59,SW,225,2.5,6.3,64,0.00,,,0.00,WUHU216HW,2013-06-29 15:03:00,
2013-06-29 11:08:00,86.9,72.8,29.59,SSW,203,3.4,5.4,63,0.00,,,0.00,WUHU216HW,2013-06-29 15:08:00,
2013-06-29 11:13:00,87.3,72.7,29.59,SSW,203,2.5,5.4,62,0.00,,,0.00,WUHU216HW,2013-06-29 15:13:00,
2013-06-29 11:18:00,87.5,72.9,29.59,SSW,203,4.0,5.8,62,0.00,,,0.00,WUHU216HW,2013-06-29 15:18:00,
2013-06-29 11:23:00,87.5,72.9,29.59,SW,225,4.7,5.8,62,0.00,,,0.00,WUHU216HW,2013-06-29 15:23:00,
2013-06-29 11:28:00,87.8,73.7,29.59,SE,135,1.8,5.8,63,0.00,,,0.00,WUHU216HW,2013-06-29 15:28:00,
2013-06-29 11:33:00,88.0,72.6,29.59,SW,225,6.3,6.3,60,0.00,,,0.00,WUHU216HW,2013-06-29 15:33:00,
2013-06-29 11:38:00,87.3,72.3,29.59,WSW,248,1.8,6.3,61,0.00,,,0.00,WUHU216HW,2013-06-29 15:38:00,
2013-06-29 11:43:00,87.3,72.7,29.59,SSE,158,2.5,6.3,62,0.00,,,0.00,WUHU216HW,2013-06-29 15:43:00,
2013-06-29 11:48:00,87.1,72.1,29.59,SW,225,4.0,6.3,61,0.00,,,0.00,WUHU216HW,2013-06-29 15:48:00,
2013-06-29 11:53:00,86.0,71.0,29.59,SSW,203,4.0,6.3,61,0.00,,,0.00,WUHU216HW,2013-06-29 15:53:00,
2013-06-29 11:58:00,85.9,72.3,29.59,SSW,203,2.0,5.4,64,0.00,,,0.00,WUHU216HW,2013-06-29 15:58:00,
2013-06-29 12:03:00,86.4,72.8,29.59,SW,225,4.3,4.7,64,0.00,,,0.00,WUHU216HW,2013-06-29 16:03:00,
2013-06-29 12:08:00,85.9,71.8,29.59,SW,225,1.3,6.9,63,0.00,,,0.00,WUHU216HW,2013-06-29 16:08:00,
2013-06-29 12:13:00,86.4,73.3,29.59,SSW,203,2.7,6.9,65,0.00,,,0.00,WUHU216HW,2013-06-29 16:13:00,
2013-06-29 12:18:00,86.9,72.8,29.59,SW,225,1.3,4.7,63,0.00,,,0.00,WUHU216HW,2013-06-29 16:18:00,
2013-06-29 12:23:00,87.1,73.0,29.59,SSW,203,2.2,4.7,63,0.00,,,0.00,WUHU216HW,2013-06-29 16:23:00,
2013-06-29 12:28:00,87.7,72.6,29.59,SSW,203,3.8,4.9,61,0.00,,,0.00,WUHU216HW,2013-06-29 16:28:00,
2013-06-29 12:33:00,88.4,72.8,29.59,WSW,248,4.7,5.4,60,0.00,,,0.00,WUHU216HW,2013-06-29 16:33:00,
2013-06-29 12:38:00,88.9,72.8,29.59,SSE,158,1.1,5.4,59,0.00,,,0.00,WUHU216HW,2013-06-29 16:38:00,
2013-06-29 12:43:00,88.9,72.8,29.59,SSW,203,4.0,6.7,59,0.00,,,0.00,WUHU216HW,2013-06-29 16:43:00,
2013-06-29 12:48:00,88.7,73.2,29.59,West,270,1.1,6.7,60,0.00,,,0.00,WUHU216HW,2013-06-29 16:48:00,
2013-06-29 12:53:00,88.2,72.2,29.59,SSW,203,2.5,5.8,59,0.00,,,0.00,WUHU216HW,2013-06-29 16:53:00,
2013-06-29 12:58:00,88.7,73.2,29.59,West,270,2.5,5.1,60,0.00,,,0.00,WUHU216HW,2013-06-29 16:58:00,
2013-06-29 13:03:00,89.5,72.7,29.59,SSE,158,0.4,6.9,58,0.00,,,0.00,WUHU216HW,2013-06-29 17:03:00,
2013-06-29 13:08:00,90.4,73.0,29.59,SSW,203,1.8,7.8,57,0.00,,,0.00,WUHU216HW,2013-06-29 17:08:00,
2013-06-29 13:13:00,90.9,72.5,29.59,WSW,248,3.8,8.3,55,0.00,,,0.00,WUHU216HW,2013-06-29 17:13:00,
2013-06-29 13:18:00,90.4,71.4,29.58,WSW,248,4.0,8.7,54,0.00,,,0.00,WUHU216HW,2013-06-29 17:18:00,
2013-06-29 13:23:00,90.5,71.0,29.58,WSW,248,3.1,8.7,53,0.00,,,0.00,WUHU216HW,2013-06-29 17:23:00,
2013-06-29 13:28:00,90.7,71.2,29.58,SW,225,1.6,6.9,53,0.00,,,0.00,WUHU216HW,2013-06-29 17:28:00,
2013-06-29 13:33:00,91.8,72.7,29.58,SSW,203,1.3,6.3,54,0.00,,,0.00,WUHU216HW,2013-06-29 17:33:00,
2013-06-29 13:38:00,92.5,71.2,29.58,WSW,248,2.5,6.7,50,0.00,,,0.00,WUHU216HW,2013-06-29 17:38:00,
2013-06-29 13:43:00,92.5,71.7,29.58,SSW,203,3.8,6.7,51,0.00,,,0.00,WUHU216HW,2013-06-29 17:43:00,
2013-06-29 13:48:00,91.6,70.4,29.58,WSW,248,3.1,5.1,50,0.00,,,0.00,WUHU216HW,2013-06-29 17:48:00,
2013-06-29 13:53:00,91.8,71.7,29.58,SSW,203,4.3,5.1,52,0.00,,,0.00,WUHU216HW,2013-06-29 17:53:00,
2013-06-29 13:58:00,92.3,71.6,29.58,WSW,248,2.7,6.3,51,0.00,,,0.00,WUHU216HW,2013-06-29 17:58:00,
2013-06-29 14:03:00,92.3,70.4,29.57,ESE,113,3.8,6.3,49,0.00,,,0.00,WUHU216HW,2013-06-29 18:03:00,
2013-06-29 14:08:00,92.2,69.0,29.57,West,270,4.7,6.3,47,0.00,,,0.00,WUHU216HW,2013-06-29 18:08:00,
2013-06-29 14:13:00,91.8,69.8,29.57,SW,225,4.9,6.3,49,0.00,,,0.00,WUHU216HW,2013-06-29 18:13:00,
2013-06-29 14:18:00,92.2,70.2,29.57,SSW,203,7.4,7.4,49,0.00,,,0.00,WUHU216HW,2013-06-29 18:18:00,
2013-06-29 14:23:00,90.7,69.0,29.57,SW,225,5.6,7.4,49,0.00,,,0.00,WUHU216HW,2013-06-29 18:23:00,
2013-06-29 14:28:00,89.3,68.8,29.57,SSW,203,5.4,6.9,51,0.00,,,0.00,WUHU216HW,2013-06-29 18:28:00,
2013-06-29 14:33:00,89.3,69.8,29.57,SW,225,3.1,6.9,53,0.00,,,0.00,WUHU216HW,2013-06-29 18:33:00,
2013-06-29 14:38:00,89.1,69.2,29.57,SSW,203,3.6,6.9,52,0.00,,,0.00,WUHU216HW,2013-06-29 18:38:00,
2013-06-29 14:43:00,90.0,70.6,29.56,SSW,203,5.4,5.4,53,0.00,,,0.00,WUHU216HW,2013-06-29 18:43:00,
2013-06-29 14:48:00,90.7,70.1,29.57,SSW,203,3.4,7.6,51,0.00,,,0.00,WUHU216HW,2013-06-29 18:48:00,
2013-06-29 14:53:00,90.7,70.1,29.56,SSW,203,2.7,7.6,51,0.00,,,0.00,WUHU216HW,2013-06-29 18:53:00,
2013-06-29 14:58:00,91.4,70.7,29.56,SSW,203,4.0,6.9,51,0.00,,,0.00,WUHU216HW,2013-06-29 18:58:00,
2013-06-29 15:03:00,92.0,70.7,29.56,SW,225,3.4,6.9,50,0.00,,,0.00,WUHU216HW,2013-06-29 19:03:00,
2013-06-29 15:08:00,92.5,69.8,29.56,SW,225,6.9,6.9,48,0.00,,,0.00,WUHU216HW,2013-06-29 19:08:00,
2013-06-29 15:13:00,92.3,69.8,29.56,SW,225,6.5,6.9,48,0.00,,,0.00,WUHU216HW,2013-06-29 19:13:00,
2013-06-29 15:18:00,90.7,68.2,29.56,SSW,203,3.6,6.5,48,0.00,,,0.00,WUHU216HW,2013-06-29 19:18:00,
2013-06-29 15:23:00,90.7,70.1,29.55,West,270,1.1,6.5,51,0.00,,,0.00,WUHU216HW,2013-06-29 19:23:00,
2013-06-29 15:28:00,92.2,70.2,29.56,South,180,4.0,6.3,49,0.00,,,0.00,WUHU216HW,2013-06-29 19:28:00,
2013-06-29 15:33:00,92.5,68.0,29.56,SW,225,4.7,6.5,45,0.00,,,0.00,WUHU216HW,2013-06-29 19:33:00,
2013-06-29 15:38:00,91.8,69.2,29.55,SSW,203,4.0,6.5,48,0.00,,,0.00,WUHU216HW,2013-06-29 19:38:00,
2013-06-29 15:43:00,92.5,69.2,29.55,SSW,203,4.3,6.3,47,0.00,,,0.00,WUHU216HW,2013-06-29 19:43:00,
2013-06-29 15:48:00,92.5,68.6,29.55,WSW,248,2.9,7.8,46,0.00,,,0.00,WUHU216HW,2013-06-29 19:48:00,
2013-06-29 15:53:00,92.5,68.0,29.55,WSW,248,3.8,7.8,45,0.00,,,0.00,WUHU216HW,2013-06-29 19:53:00,
2013-06-29 15:58:00,92.0,67.4,29.55,SSW,203,6.3,7.2,45,0.00,,,0.00,WUHU216HW,2013-06-29 19:58:00,
2013-06-29 16:03:00,92.0,67.4,29.54,SSW,203,7.4,7.4,45,0.00,,,0.00,WUHU216HW,2013-06-29 20:03:00,
2013-06-29 16:08:00,92.2,67.6,29.55,North,0,2.0,9.8,45,0.00,,,0.00,WUHU216HW,2013-06-29 20:08:00,
2013-06-29 16:13:00,92.5,67.3,29.55,West,270,3.8,9.8,44,0.00,,,0.00,WUHU216HW,2013-06-29 20:13:00,
2013-06-29 16:18:00,92.7,68.1,29.55,SW,225,2.2,6.3,45,0.00,,,0.00,WUHU216HW,2013-06-29 20:18:00,
2013-06-29 16:23:00,92.7,66.8,29.55,SW,225,3.4,7.6,43,0.00,,,0.00,WUHU216HW,2013-06-29 20:23:00,
2013-06-29 16:28:00,92.5,66.6,29.55,SSW,203,4.5,7.6,43,0.00,,,0.00,WUHU216HW,2013-06-29 20:28:00,
2013-06-29 16:33:00,91.4,67.0,29.55,SW,225,2.9,7.2,45,0.00,,,0.00,WUHU216HW,2013-06-29 20:33:00,
2013-06-29 16:38:00,92.3,67.8,29.55,SW,225,3.4,7.8,45,0.00,,,0.00,WUHU216HW,2013-06-29 20:38:00,
2013-06-29 16:43:00,92.0,67.4,29.55,SW,225,2.2,7.8,45,0.00,,,0.00,WUHU216HW,2013-06-29 20:43:00,
2013-06-29 16:48:00,91.6,67.2,29.55,SSW,203,4.9,7.6,45,0.00,,,0.00,WUHU216HW,2013-06-29 20:48:00,
2013-06-29 16:53:00,91.1,66.6,29.55,SW,225,2.9,7.6,45,0.00,,,0.00,WUHU216HW,2013-06-29 20:53:00,
2013-06-29 16:58:00,91.1,66.6,29.55,WNW,293,4.0,6.3,45,0.00,,,0.00,WUHU216HW,2013-06-29 20:58:00,
2013-06-29 17:03:00,91.4,66.3,29.55,WSW,248,2.5,6.3,44,0.00,,,0.00,WUHU216HW,2013-06-29 21:03:00,
2013-06-29 17:08:00,91.4,66.3,29.55,WSW,248,4.0,6.9,44,0.00,,,0.00,WUHU216HW,2013-06-29 21:08:00,
2013-06-29 17:13:00,91.4,66.3,29.55,SSW,203,5.6,6.9,44,0.00,,,0.00,WUHU216HW,2013-06-29 21:13:00,
2013-06-29 17:18:00,92.3,67.8,29.55,West,270,3.4,6.9,45,0.00,,,0.00,WUHU216HW,2013-06-29 21:18:00,
2013-06-29 17:23:00,93.2,68.0,29.55,West,270,3.1,8.7,44,0.00,,,0.00,WUHU216HW,2013-06-29 21:23:00,
2013-06-29 17:28:00,92.2,65.7,29.55,WSW,248,4.3,8.7,42,0.00,,,0.00,WUHU216HW,2013-06-29 21:28:00,
2013-06-29 17:33:00,91.6,65.8,29.54,SW,225,4.0,6.7,43,0.00,,,0.00,WUHU216HW,2013-06-29 21:33:00,
2013-06-29 17:38:00,92.2,67.0,29.54,SSW,203,5.1,6.7,44,0.00,,,0.00,WUHU216HW,2013-06-29 21:38:00,
2013-06-29 17:43:00,92.3,67.2,29.54,SSW,203,2.0,6.3,44,0.00,,,0.00,WUHU216HW,2013-06-29 21:43:00,
2013-06-29 17:48:00,92.2,67.0,29.54,SW,225,4.0,6.7,44,0.00,,,0.00,WUHU216HW,2013-06-29 21:48:00,
2013-06-29 17:53:00,92.3,67.8,29.54,SSW,203,4.0,6.7,45,0.00,,,0.00,WUHU216HW,2013-06-29 21:53:00,
2013-06-29 17:58:00,92.2,67.6,29.54,WSW,248,3.4,6.0,45,0.00,,,0.00,WUHU216HW,2013-06-29 21:58:00,
2013-06-29 18:03:00,91.4,67.6,29.54,SW,225,2.5,6.7,46,0.00,,,0.00,WUHU216HW,2013-06-29 22:03:00,
2013-06-29 18:08:00,91.8,67.3,29.54,WSW,248,2.2,6.7,45,0.00,,,0.00,WUHU216HW,2013-06-29 22:08:00,
2013-06-29 18:13:00,91.4,67.0,29.54,SW,225,4.7,6.5,45,0.00,,,0.00,WUHU216HW,2013-06-29 22:13:00,
2013-06-29 18:18:00,90.7,67.0,29.54,SW,225,2.0,6.5,46,0.00,,,0.00,WUHU216HW,2013-06-29 22:18:00,
2013-06-29 18:23:00,90.7,66.3,29.54,SW,225,3.6,5.6,45,0.00,,,0.00,WUHU216HW,2013-06-29 22:23:00,
2013-06-29 18:28:00,90.7,67.0,29.54,WSW,248,3.8,5.6,46,0.00,,,0.00,WUHU216HW,2013-06-29 22:28:00,
2013-06-29 18:33:00,90.7,67.0,29.54,SSW,203,3.4,4.7,46,0.00,,,0.00,WUHU216HW,2013-06-29 22:33:00,
2013-06-29 18:38:00,91.1,68.0,29.54,SW,225,1.8,4.0,47,0.00,,,0.00,WUHU216HW,2013-06-29 22:38:00,
2013-06-29 18:43:00,91.4,67.6,29.54,SSW,203,2.9,5.4,46,0.00,,,0.00,WUHU216HW,2013-06-29 22:43:00,
2013-06-29 18:48:00,91.4,67.0,29.54,SSE,158,4.7,6.0,45,0.00,,,0.00,WUHU216HW,2013-06-29 22:48:00,
2013-06-29 18:53:00,91.4,67.6,29.54,SW,225,1.6,6.0,46,0.00,,,0.00,WUHU216HW,2013-06-29 22:53:00,
2013-06-29 18:58:00,91.4,67.0,29.54,SW,225,3.4,4.7,45,0.00,,,0.00,WUHU216HW,2013-06-29 22:58:00,
2013-06-29 19:03:00,91.6,67.2,29.55,WSW,248,3.1,6.3,45,0.00,,,0.00,WUHU216HW,2013-06-29 23:03:00,
2013-06-29 19:04:00,91.4,67.0,29.55,SW,225,2.9,6.3,45,0.00,,,0.00,WUHU216HW,2013-06-29 23:04:00,
2013-06-29 19:09:00,91.4,67.6,29.55,SSW,203,3.1,6.3,46,0.00,,,0.00,WUHU216HW,2013-06-29 23:09:00,
2013-06-29 19:14:00,91.4,67.0,29.55,SSW,203,3.4,5.1,45,0.00,,,0.00,WUHU216HW,2013-06-29 23:14:00,
2013-06-29 19:19:00,91.4,67.6,29.56,SSW,203,2.0,5.6,46,0.00,,,0.00,WUHU216HW,2013-06-29 23:19:00,
2013-06-29 19:24:00,91.3,67.4,29.56,SSW,203,3.1,5.6,46,0.00,,,0.00,WUHU216HW,2013-06-29 23:24:00,
2013-06-29 19:29:00,91.1,69.8,29.56,SW,225,1.1,4.7,50,0.00,,,0.00,WUHU216HW,2013-06-29 23:29:00,
2013-06-29 19:34:00,90.4,70.3,29.56,SSE,158,2.0,3.6,52,0.00,,,0.00,WUHU216HW,2013-06-29 23:34:00,
2013-06-29 19:39:00,89.5,70.6,29.57,NNE,23,1.8,3.8,54,0.00,,,0.00,WUHU216HW,2013-06-29 23:39:00,
2013-06-29 19:44:00,88.9,70.7,29.57,ESE,113,2.7,4.3,55,0.00,,,0.00,WUHU216HW,2013-06-29 23:44:00,
2013-06-29 19:49:00,88.2,70.6,29.57,SSE,158,3.1,6.3,56,0.00,,,0.00,WUHU216HW,2013-06-29 23:49:00,
2013-06-29 19:54:00,87.5,70.4,29.57,SSE,158,2.5,6.3,57,0.00,,,0.00,WUHU216HW,2013-06-29 23:54:00,
2013-06-29 19:59:00,86.8,70.2,29.57,SW,225,2.9,4.5,58,0.00,,,0.00,WUHU216HW,2013-06-29 23:59:00,
2013-06-29 20:04:00,86.2,70.2,29.57,SSW,203,3.1,4.5,59,0.00,,,0.00,WUHU216HW,2013-06-30 00:04:00,
2013-06-29 20:09:00,85.7,70.2,29.57,SSW,203,3.4,5.4,60,0.00,,,0.00,WUHU216HW,2013-06-30 00:09:00,
2013-06-29 20:14:00,85.0,70.5,29.57,SSW,203,2.5,6.3,62,0.00,,,0.00,WUHU216HW,2013-06-30 00:14:00,
2013-06-29 20:19:00,84.6,70.2,29.56,SW,225,3.4,6.3,62,0.00,,,0.00,WUHU216HW,2013-06-30 00:19:00,
2013-06-29 20:24:00,84.1,69.7,29.57,SW,225,1.1,3.4,62,0.00,,,0.00,WUHU216HW,2013-06-30 00:24:00,
2013-06-29 20:29:00,83.5,69.6,29.57,SSW,203,2.5,3.8,63,0.00,,,0.00,WUHU216HW,2013-06-30 00:29:00,
2013-06-29 20:34:00,82.8,69.8,29.57,SW,225,2.5,6.5,65,0.00,,,0.00,WUHU216HW,2013-06-30 00:34:00,
2013-06-29 20:39:00,81.9,69.0,29.57,SSW,203,2.5,6.5,65,0.00,,,0.00,WUHU216HW,2013-06-30 00:39:00,
2013-06-29 20:44:00,81.4,68.9,29.58,South,180,5.6,5.6,66,0.00,,,0.00,WUHU216HW,2013-06-30 00:44:00,
2013-06-29 20:49:00,80.8,68.9,29.58,South,180,7.2,7.2,67,0.00,,,0.00,WUHU216HW,2013-06-30 00:49:00,
2013-06-29 20:54:00,80.3,68.8,29.58,SSW,203,2.9,7.2,68,0.00,,,0.00,WUHU216HW,2013-06-30 00:54:00,
2013-06-29 20:59:00,79.9,69.3,29.58,SSE,158,2.5,4.7,70,0.00,,,0.00,WUHU216HW,2013-06-30 00:59:00,
2013-06-29 21:04:00,79.6,68.5,29.58,SSW,203,3.8,4.9,69,0.00,,,0.00,WUHU216HW,2013-06-30 01:04:00,
2013-06-29 21:09:00,79.2,68.6,29.59,SSW,203,1.1,4.9,70,0.00,,,0.00,WUHU216HW,2013-06-30 01:09:00,
2013-06-29 21:14:00,78.8,68.2,29.58,SSW,203,1.6,6.0,70,0.00,,,0.00,WUHU216HW,2013-06-30 01:14:00,
2013-06-29 21:19:00,78.5,67.9,29.59,SSW,203,1.1,6.0,70,0.00,,,0.00,WUHU216HW,2013-06-30 01:19:00,
2013-06-29 21:24:00,78.3,67.8,29.59,SSW,203,0.4,4.0,70,0.00,,,0.00,WUHU216HW,2013-06-30 01:24:00,
2013-06-29 21:29:00,78.1,67.6,29.59,SSW,203,2.2,2.9,70,0.00,,,0.00,WUHU216HW,2013-06-30 01:29:00,
2013-06-29 21:34:00,77.8,68.1,29.59,South,180,4.9,4.9,72,0.00,,,0.00,WUHU216HW,2013-06-30 01:34:00,
2013-06-29 21:39:00,77.4,67.3,29.59,SW,225,0.4,4.9,71,0.00,,,0.00,WUHU216HW,2013-06-30 01:39:00,
2013-06-29 21:44:00,77.0,67.0,29.59,South,180,0.9,4.0,71,0.00,,,0.00,WUHU216HW,2013-06-30 01:44:00,
2013-06-29 21:49:00,76.7,66.6,29.59,SE,135,1.8,2.5,71,0.00,,,0.00,WUHU216HW,2013-06-30 01:49:00,
2013-06-29 21:54:00,76.5,66.9,29.60,SSW,203,1.1,4.5,72,0.00,,,0.00,WUHU216HW,2013-06-30 01:54:00,
2013-06-29 21:59:00,76.1,66.5,29.60,SSW,203,2.7,4.5,72,0.00,,,0.00,WUHU216HW,2013-06-30 01:59:00,
2013-06-29 22:04:00,76.0,66.3,29.60,SSW,203,0.2,2.7,72,0.00,,,0.00,WUHU216HW,2013-06-30 02:04:00,
2013-06-29 22:09:00,75.6,66.0,29.60,SSW,203,2.0,3.1,72,0.00,,,0.00,WUHU216HW,2013-06-30 02:09:00,
2013-06-29 22:14:00,75.6,66.0,29.61,WSW,248,3.4,5.4,72,0.00,,,0.00,WUHU216HW,2013-06-30 02:14:00,
2013-06-29 22:19:00,75.6,66.0,29.61,SSW,203,2.7,5.4,72,0.00,,,0.00,WUHU216HW,2013-06-30 02:19:00,
2013-06-29 22:24:00,75.4,65.8,29.61,SSW,203,2.0,4.7,72,0.00,,,0.00,WUHU216HW,2013-06-30 02:24:00,
2013-06-29 22:29:00,75.2,65.6,29.61,SW,225,3.4,4.0,72,0.00,,,0.00,WUHU216HW,2013-06-30 02:29:00,
2013-06-29 22:34:00,75.1,65.4,29.62,SSE,158,1.8,4.0,72,0.00,,,0.00,WUHU216HW,2013-06-30 02:34:00,
2013-06-29 22:39:00,75.1,65.4,29.61,SSW,203,3.4,4.0,72,0.00,,,0.00,WUHU216HW,2013-06-30 02:39:00,
2013-06-29 22:44:00,74.9,65.3,29.61,SSW,203,2.5,4.9,72,0.00,,,0.00,WUHU216HW,2013-06-30 02:44:00,
2013-06-29 22:49:00,74.7,65.1,29.61,SSW,203,1.6,4.9,72,0.00,,,0.00,WUHU216HW,2013-06-30 02:49:00,
2013-06-29 22:54:00,74.7,65.1,29.61,SSW,203,2.2,4.0,72,0.00,,,0.00,WUHU216HW,2013-06-30 02:54:00,
2013-06-29 22:59:00,74.5,65.4,29.61,SSW,203,1.3,4.0,73,0.00,,,0.00,WUHU216HW,2013-06-30 02:59:00,
2013-06-29 23:04:00,74.3,65.2,29.62,SW,225,1.1,2.7,73,0.00,,,0.00,WUHU216HW,2013-06-30 03:04:00,
2013-06-29 23:09:00,74.2,65.0,29.62,SW,225,0.4,2.7,73,0.00,,,0.00,WUHU216HW,2013-06-30 03:09:00,
2013-06-29 23:14:00,74.0,64.8,29.61,SSW,203,0.4,2.9,73,0.00,,,0.00,WUHU216HW,2013-06-30 03:14:00,
2013-06-29 23:19:00,74.0,65.2,29.61,SSW,203,1.6,2.9,74,0.00,,,0.00,WUHU216HW,2013-06-30 03:19:00,
2013-06-29 23:24:00,73.8,65.4,29.61,SSW,203,2.5,2.5,75,0.00,,,0.00,WUHU216HW,2013-06-30 03:24:00,
2013-06-29 23:29:00,73.8,65.1,29.61,SSW,203,0.4,2.5,74,0.00,,,0.00,WUHU216HW,2013-06-30 03:29:00,
2013-06-29 23:34:00,73.8,65.4,29.62,SW,225,1.1,2.5,75,0.00,,,0.00,WUHU216HW,2013-06-30 03:34:00,
2013-06-29 23:39:00,73.8,65.4,29.62,SW,225,1.3,1.6,75,0.00,,,0.00,WUHU216HW,2013-06-30 03:39:00,
2013-06-29 23:44:00,73.8,65.4,29.62,SW,225,0.9,1.8,75,0.00,,,0.00,WUHU216HW,2013-06-30 03:44:00,
2013-06-29 23:49:00,73.6,65.3,29.62,SSW,203,0.7,2.0,75,0.00,,,0.00,WUHU216HW,2013-06-30 03:49:00,
2013-06-29 23:54:00,73.4,65.1,29.62,SSW,203,0.7,2.0,75,0.00,,,0.00,WUHU216HW,2013-06-30 03:54:00,
2013-06-29 23:59:00,73.3,64.9,29.62,SW,225,0.2,1.1,75,0.00,,,0.00,WUHU216HW,2013-06-30 03:59:00,